createdAt,value
2022-09-23T00:01:08.302Z,12.67
2022-09-23T00:03:37.256Z,12.57
2022-09-23T00:06:10.728Z,12.32
2022-09-23T00:08:38.639Z,12.52
2022-09-23T00:11:12.495Z,13.10
2022-09-23T00:13:41.355Z,13.23
2022-09-23T00:16:11.256Z,12.63
2022-09-23T00:18:38.216Z,13.05
2022-09-23T00:21:07.058Z,11.57
2022-09-23T00:23:33.874Z,11.47
2022-09-23T00:26:02.630Z,11.50
2022-09-23T00:28:30.561Z,11.97
2022-09-23T00:30:57.596Z,12.18
2022-09-23T00:33:24.424Z,11.80
2022-09-23T00:35:51.440Z,13.55
2022-09-23T00:38:18.212Z,13.25
2022-09-23T00:40:46.341Z,13.43
2022-09-23T00:43:14.803Z,14.03
2022-09-23T00:45:48.504Z,13.18
2022-09-23T00:48:20.452Z,13.48
2022-09-23T00:50:54.409Z,13.48
2022-09-23T00:53:26.672Z,12.50
2022-09-23T00:55:57.453Z,12.20
2022-09-23T00:58:28.366Z,12.73
2022-09-23T01:00:55.571Z,12.68
2022-09-23T01:03:22.908Z,13.93
2022-09-23T01:05:51.399Z,13.35
2022-09-23T01:08:19.100Z,12.57
2022-09-23T01:11:04.056Z,13.45
2022-09-23T01:13:54.778Z,13.55
2022-09-23T01:16:48.095Z,14.25
2022-09-23T01:19:36.610Z,13.50
2022-09-23T01:22:34.526Z,13.57
2022-09-23T01:25:13.359Z,13.77
2022-09-23T01:28:15.510Z,13.20
2022-09-23T01:30:43.679Z,13.35
2022-09-23T01:33:18.946Z,13.07
2022-09-23T01:36:08.623Z,12.90
2022-09-23T01:38:49.298Z,13.68
2022-09-23T01:41:28.015Z,13.10
2022-09-23T01:43:55.071Z,13.38
2022-09-23T01:46:31.587Z,12.90
2022-09-23T01:49:07.684Z,13.55
2022-09-23T01:52:15.885Z,13.32
2022-09-23T01:54:51.108Z,13.02
2022-09-23T01:57:25.515Z,13.30
2022-09-23T02:00:12.765Z,13.63
2022-09-23T02:02:59.311Z,15.00
2022-09-23T02:05:33.639Z,14.40
2022-09-23T02:08:07.147Z,14.00
2022-09-23T02:10:42.122Z,13.70
2022-09-23T02:13:33.940Z,13.00
2022-09-23T02:16:08.646Z,14.48
2022-09-23T02:18:43.444Z,13.38
2022-09-23T02:21:11.362Z,13.00
2022-09-23T02:23:50.495Z,13.30
2022-09-23T02:26:26.387Z,13.10
2022-09-23T02:29:01.351Z,13.65
2022-09-23T02:31:39.610Z,14.70
2022-09-23T02:34:27.923Z,14.10
2022-09-23T02:37:32.019Z,13.23
2022-09-23T02:40:23.444Z,13.00
2022-09-23T02:43:07.380Z,13.95
2022-09-23T02:45:34.705Z,13.60
2022-09-23T02:48:09.628Z,13.18
2022-09-23T02:50:38.103Z,13.75
2022-09-23T02:53:05.987Z,13.43
2022-09-23T02:55:33.250Z,13.32
2022-09-23T02:58:02.028Z,13.52
2022-09-23T03:01:22.567Z,13.30
2022-09-23T03:04:08.572Z,15.40
2022-09-23T03:06:49.560Z,15.13
2022-09-23T03:09:26.518Z,14.30
2022-09-23T03:12:41.942Z,12.65
2022-09-23T03:15:26.384Z,13.23
2022-09-23T03:18:20.380Z,13.60
2022-09-23T03:21:07.876Z,13.25
2022-09-23T03:23:38.690Z,13.70
2022-09-23T03:26:17.582Z,14.38
2022-09-23T03:28:45.784Z,14.70
2022-09-23T03:31:15.126Z,13.63
2022-09-23T03:33:47.911Z,13.50
2022-09-23T03:36:37.404Z,14.23
2022-09-23T03:39:15.244Z,14.00
2022-09-23T03:41:52.759Z,14.50
2022-09-23T03:44:21.887Z,14.20
2022-09-23T03:46:51.739Z,12.93
2022-09-23T03:49:27.316Z,16.95
2022-09-23T03:51:55.438Z,14.38
2022-09-23T03:54:22.546Z,15.40
2022-09-23T03:56:49.714Z,14.40
2022-09-23T03:59:16.779Z,15.20
2022-09-23T04:01:43.776Z,16.15
2022-09-23T04:04:10.700Z,16.25
2022-09-23T04:06:37.524Z,16.00
2022-09-23T04:09:04.446Z,15.45
2022-09-23T04:11:31.267Z,15.80
2022-09-23T04:13:58.350Z,15.57
2022-09-23T04:16:25.896Z,15.45
2022-09-23T04:18:52.827Z,15.27
2022-09-23T04:21:19.623Z,15.60
2022-09-23T04:23:46.868Z,15.18
2022-09-23T04:26:14.464Z,15.20
2022-09-23T04:28:41.391Z,14.70
2022-09-23T04:31:09.945Z,14.48
2022-09-23T04:33:37.833Z,14.07
2022-09-23T04:36:05.308Z,14.18
2022-09-23T04:38:32.126Z,13.20
2022-09-23T04:40:59.153Z,14.50
2022-09-23T04:43:25.954Z,13.83
2022-09-23T04:46:00.567Z,13.90
2022-09-23T04:48:28.142Z,13.77
2022-09-23T04:50:55.196Z,13.70
2022-09-23T04:53:22.528Z,13.73
2022-09-23T04:55:52.304Z,13.50
2022-09-23T04:58:19.176Z,14.05
2022-09-23T05:00:46.542Z,13.15
2022-09-23T05:03:13.773Z,13.63
2022-09-23T05:05:40.688Z,13.02
2022-09-23T05:08:07.597Z,13.25
2022-09-23T05:10:34.451Z,13.93
2022-09-23T05:13:01.315Z,13.48
2022-09-23T05:15:28.142Z,13.25
2022-09-23T05:17:58.162Z,13.65
2022-09-23T05:20:25.635Z,12.88
2022-09-23T05:22:55.543Z,13.20
2022-09-23T05:25:25.678Z,13.32
2022-09-23T05:27:55.798Z,12.75
2022-09-23T05:30:22.709Z,12.75
2022-09-23T05:32:49.542Z,13.32
2022-09-23T05:35:16.451Z,13.50
2022-09-23T05:37:43.297Z,13.23
2022-09-23T05:40:10.352Z,13.10
2022-09-23T05:42:37.284Z,13.40
2022-09-23T05:45:04.450Z,13.15
2022-09-23T05:47:31.282Z,13.10
2022-09-23T05:50:00.470Z,13.15
2022-09-23T05:52:27.911Z,12.77
2022-09-23T05:54:54.778Z,13.80
2022-09-23T05:57:21.694Z,12.35
2022-09-23T05:59:48.617Z,13.23
2022-09-23T06:02:15.517Z,12.90
2022-09-23T06:04:43.092Z,12.68
2022-09-23T06:07:10.541Z,12.60
2022-09-23T06:09:37.605Z,13.02
2022-09-23T06:12:05.093Z,13.02
2022-09-23T06:14:31.977Z,12.95
2022-09-23T06:16:58.776Z,13.10
2022-09-23T06:19:25.596Z,13.18
2022-09-23T06:21:52.715Z,13.00
2022-09-23T06:24:22.918Z,12.55
2022-09-23T06:26:51.647Z,13.15
2022-09-23T06:29:18.552Z,12.35
2022-09-23T06:31:45.551Z,12.88
2022-09-23T06:34:14.490Z,13.23
2022-09-23T06:36:46.237Z,12.60
2022-09-23T06:39:16.739Z,13.45
2022-09-23T06:41:45.499Z,12.40
2022-09-23T06:44:13.787Z,12.35
2022-09-23T06:46:41.335Z,12.80
2022-09-23T06:49:09.019Z,12.65
2022-09-23T06:51:35.924Z,12.40
2022-09-23T06:54:03.428Z,11.88
2022-09-23T06:56:33.607Z,11.85
2022-09-23T06:59:05.433Z,11.73
2022-09-23T07:01:32.403Z,11.20
2022-09-23T07:04:00.615Z,11.67
2022-09-23T07:06:27.527Z,11.20
2022-09-23T07:08:54.377Z,10.43
2022-09-23T07:11:22.520Z,11.10
2022-09-23T07:13:49.729Z,10.27
2022-09-23T07:16:16.618Z,11.10
2022-09-23T07:18:44.331Z,10.68
2022-09-23T07:21:15.238Z,11.30
2022-09-23T07:23:44.189Z,9.90
2022-09-23T07:26:11.009Z,10.00
2022-09-23T07:28:39.043Z,10.50
2022-09-23T07:31:11.681Z,10.43
2022-09-23T07:33:40.127Z,11.07
2022-09-23T07:36:10.153Z,11.00
2022-09-23T07:38:41.548Z,10.60
2022-09-23T07:41:14.202Z,10.88
2022-09-23T07:43:41.267Z,10.98
2022-09-23T07:46:11.770Z,10.70
2022-09-23T07:48:39.292Z,10.80
2022-09-23T07:51:11.385Z,10.82
2022-09-23T07:53:38.626Z,10.20
2022-09-23T07:56:06.623Z,9.60
2022-09-23T07:58:34.644Z,10.02
2022-09-23T08:01:06.499Z,9.40
2022-09-23T08:03:33.572Z,8.95
2022-09-23T08:06:09.052Z,8.88
2022-09-23T08:08:39.382Z,9.18
2022-09-23T08:11:10.252Z,9.20
2022-09-23T08:13:37.522Z,9.07
2022-09-23T08:16:04.602Z,8.82
2022-09-23T08:18:31.532Z,9.07
2022-09-23T08:20:58.525Z,9.07
2022-09-23T08:23:25.556Z,9.15
2022-09-23T08:26:00.903Z,8.98
2022-09-23T08:28:28.198Z,9.20
2022-09-23T08:30:55.813Z,9.40
2022-09-23T08:33:23.970Z,8.85
2022-09-23T08:35:52.225Z,8.82
2022-09-23T08:38:19.700Z,9.40
2022-09-23T08:40:49.533Z,9.48
2022-09-23T08:43:31.316Z,9.18
2022-09-23T08:46:03.040Z,9.30
2022-09-23T08:48:36.547Z,8.80
2022-09-23T08:51:11.886Z,9.32
2022-09-23T08:53:39.236Z,9.38
2022-09-23T08:56:27.487Z,9.60
2022-09-23T08:59:22.870Z,9.48
2022-09-23T09:01:56.932Z,9.68
2022-09-23T09:04:39.034Z,9.73
2022-09-23T09:07:35.279Z,9.98
2022-09-23T09:10:20.526Z,10.73
2022-09-23T09:13:31.892Z,10.43
2022-09-23T09:17:00.326Z,11.18
2022-09-23T09:19:55.886Z,11.20
2022-09-23T09:22:39.807Z,10.98
2022-09-23T09:25:22.804Z,11.20
2022-09-23T09:27:51.592Z,10.48
2022-09-23T09:30:19.548Z,9.98
2022-09-23T09:32:59.225Z,10.07
2022-09-23T09:36:01.153Z,9.20
2022-09-23T09:38:28.461Z,9.30
2022-09-23T09:41:00.136Z,9.63
2022-09-23T09:43:27.002Z,9.23
2022-09-23T09:46:06.655Z,10.15
2022-09-23T09:48:39.543Z,11.45
2022-09-23T09:51:21.481Z,8.55
2022-09-23T09:53:51.972Z,9.00
2022-09-23T09:56:26.345Z,8.23
2022-09-23T09:59:00.796Z,8.43
2022-09-23T10:01:31.093Z,8.00
2022-09-23T10:04:01.639Z,8.68
2022-09-23T10:06:32.458Z,7.57
2022-09-23T10:09:10.739Z,8.57
2022-09-23T10:11:38.803Z,8.05
2022-09-23T10:14:18.970Z,7.50
2022-09-23T10:16:48.927Z,6.97
2022-09-23T10:19:28.248Z,6.72
2022-09-23T10:22:00.319Z,5.93
2022-09-23T10:24:32.677Z,5.43
2022-09-23T10:27:09.463Z,5.63
2022-09-23T10:29:48.439Z,5.27
2022-09-23T10:32:37.310Z,5.50
2022-09-23T10:35:04.650Z,5.90
2022-09-23T10:37:40.100Z,5.40
2022-09-23T10:40:32.144Z,5.60
2022-09-23T10:43:54.586Z,5.75
2022-09-23T10:46:38.758Z,5.50
2022-09-23T10:49:27.624Z,5.63
2022-09-23T10:52:23.917Z,5.57
2022-09-23T10:55:05.891Z,5.45
2022-09-23T10:57:47.174Z,5.82
2022-09-23T11:00:52.438Z,6.32
2022-09-23T11:03:40.470Z,5.45
2022-09-23T11:06:32.982Z,5.70
2022-09-23T11:09:03.021Z,5.80
2022-09-23T11:11:59.170Z,5.27
2022-09-23T11:14:32.117Z,6.05
2022-09-23T11:17:14.816Z,6.32
2022-09-23T11:19:55.947Z,5.82
2022-09-23T11:22:38.015Z,5.63
2022-09-23T11:25:17.164Z,5.78
2022-09-23T11:27:59.036Z,5.90
2022-09-23T11:30:39.251Z,5.20
2022-09-23T11:33:22.979Z,5.38
2022-09-23T11:36:02.030Z,5.22
2022-09-23T11:38:34.264Z,5.50
2022-09-23T11:41:22.341Z,5.53
2022-09-23T11:43:56.095Z,5.47
2022-09-23T11:46:46.672Z,5.60
2022-09-23T11:49:39.347Z,5.30
2022-09-23T11:52:31.993Z,5.10
2022-09-23T11:55:22.739Z,5.05
2022-09-23T11:58:01.847Z,4.97
2022-09-23T12:00:34.348Z,5.28
2022-09-23T12:03:43.465Z,4.97
2022-09-23T12:06:26.885Z,4.85
2022-09-23T12:09:01.150Z,4.50
2022-09-23T12:11:41.077Z,4.53
2022-09-23T12:14:31.724Z,3.60
2022-09-23T12:17:24.167Z,4.10
2022-09-23T12:20:31.206Z,4.45
2022-09-23T12:23:10.772Z,5.15
2022-09-23T12:25:41.856Z,4.60
2022-09-23T12:28:21.082Z,4.25
2022-09-23T12:30:49.924Z,4.00
2022-09-23T12:33:22.553Z,4.90
2022-09-23T12:35:49.505Z,5.38
2022-09-23T12:38:20.739Z,4.97
2022-09-23T12:40:48.560Z,5.20
2022-09-23T12:43:32.992Z,5.30
2022-09-23T12:46:27.385Z,5.18
2022-09-23T12:49:00.831Z,5.33
2022-09-23T12:51:36.945Z,5.30
2022-09-23T12:54:03.755Z,5.13
2022-09-23T12:56:36.744Z,5.00
2022-09-23T12:59:18.627Z,5.05
2022-09-23T13:01:45.594Z,4.70
2022-09-23T13:05:00.354Z,4.70
2022-09-23T13:07:32.031Z,4.70
2022-09-23T13:10:28.553Z,4.80
2022-09-23T13:12:57.688Z,4.40
2022-09-23T13:15:34.009Z,4.57
2022-09-23T13:18:18.843Z,4.60
2022-09-23T13:20:47.054Z,5.00
2022-09-23T13:23:24.874Z,4.67
2022-09-23T13:25:55.656Z,4.93
2022-09-23T13:28:25.526Z,5.75
2022-09-23T13:30:53.266Z,5.88
2022-09-23T13:33:27.357Z,6.07
2022-09-23T13:36:00.955Z,5.70
2022-09-23T13:38:31.919Z,6.00
2022-09-23T13:41:05.414Z,6.40
2022-09-23T13:43:41.408Z,7.57
2022-09-23T13:46:16.399Z,8.05
2022-09-23T13:48:45.357Z,7.57
2022-09-23T13:51:20.771Z,7.93
2022-09-23T13:53:54.607Z,8.00
2022-09-23T13:56:22.124Z,8.07
2022-09-23T13:58:48.974Z,7.75
2022-09-23T14:01:36.310Z,8.35
2022-09-23T14:04:03.240Z,8.32
2022-09-23T14:06:31.563Z,8.18
2022-09-23T14:09:01.368Z,7.72
2022-09-23T14:11:35.130Z,8.40
2022-09-23T14:14:07.489Z,8.30
2022-09-23T14:16:38.234Z,8.48
2022-09-23T14:19:07.872Z,8.50
2022-09-23T14:21:39.846Z,8.32
2022-09-23T14:24:22.000Z,7.65
2022-09-23T14:26:59.208Z,7.43
2022-09-23T14:29:29.191Z,8.05
2022-09-23T14:32:07.448Z,7.78
2022-09-23T14:35:01.107Z,7.60
2022-09-23T14:37:55.348Z,7.53
2022-09-23T14:40:37.976Z,6.82
2022-09-23T14:43:15.734Z,6.20
2022-09-23T14:45:47.364Z,5.88
2022-09-23T14:48:23.427Z,6.00
2022-09-23T14:50:54.716Z,5.97
2022-09-23T14:53:24.486Z,5.50
2022-09-23T14:55:57.202Z,5.78
2022-09-23T14:58:28.612Z,5.60
2022-09-23T15:01:00.938Z,5.87
2022-09-23T15:03:29.632Z,6.07
2022-09-23T15:06:03.105Z,6.05
2022-09-23T15:08:34.859Z,6.05
2022-09-23T15:11:08.382Z,5.97
2022-09-23T15:13:46.066Z,5.90
2022-09-23T15:16:15.467Z,5.70
2022-09-23T15:18:53.049Z,5.65
2022-09-23T15:21:23.200Z,5.87
2022-09-23T15:23:52.493Z,6.50
2022-09-23T15:26:40.714Z,5.88
2022-09-23T15:29:10.456Z,6.53
2022-09-23T15:31:37.750Z,6.90
2022-09-23T15:34:05.619Z,6.95
2022-09-23T15:36:32.837Z,7.10
2022-09-23T15:39:10.138Z,7.22
2022-09-23T15:41:36.976Z,7.72
2022-09-23T15:44:15.654Z,7.53
2022-09-23T15:46:50.246Z,8.05
2022-09-23T15:49:36.666Z,8.02
2022-09-23T15:52:05.194Z,7.65
2022-09-23T15:54:33.757Z,8.25
2022-09-23T15:57:01.171Z,8.02
2022-09-23T15:59:30.985Z,8.10
2022-09-23T16:02:02.075Z,9.00
2022-09-23T16:04:31.309Z,9.10
2022-09-23T16:06:59.190Z,9.45
2022-09-23T16:09:28.276Z,9.33
2022-09-23T16:11:55.236Z,9.63
2022-09-23T16:14:22.375Z,9.57
2022-09-23T16:16:49.537Z,10.25
2022-09-23T16:19:17.699Z,10.23
2022-09-23T16:21:44.779Z,10.30
2022-09-23T16:24:17.216Z,11.07
2022-09-23T16:26:46.776Z,11.63
2022-09-23T16:29:14.135Z,12.00
2022-09-23T16:31:41.243Z,12.88
2022-09-23T16:34:08.503Z,15.60
2022-09-23T16:36:41.077Z,29.50
2022-09-23T16:39:10.746Z,42.45
2022-09-23T16:41:37.713Z,27.92
2022-09-23T16:44:07.397Z,17.73
2022-09-23T16:46:35.298Z,14.50
2022-09-23T16:49:02.389Z,12.82
2022-09-23T16:51:38.300Z,12.50
2022-09-23T16:54:11.891Z,12.50
2022-09-23T16:56:44.377Z,12.45
2022-09-23T16:59:12.956Z,13.38
2022-09-23T17:01:58.686Z,12.80
2022-09-23T17:04:25.784Z,13.18
2022-09-23T17:06:53.208Z,13.23
2022-09-23T17:09:23.203Z,12.95
2022-09-23T17:12:04.740Z,13.38
2022-09-23T17:14:31.932Z,13.40
2022-09-23T17:17:01.713Z,13.23
2022-09-23T17:19:28.691Z,13.32
2022-09-23T17:21:55.579Z,14.20
2022-09-23T17:24:22.687Z,15.32
2022-09-23T17:26:53.016Z,13.77
2022-09-23T17:29:20.595Z,13.70
2022-09-23T17:31:47.466Z,13.07
2022-09-23T17:34:14.572Z,13.73
2022-09-23T17:36:41.449Z,13.77
2022-09-23T17:39:08.442Z,13.75
2022-09-23T17:41:35.304Z,13.80
2022-09-23T17:44:02.355Z,14.30
2022-09-23T17:46:30.923Z,14.20
2022-09-23T17:48:58.247Z,13.85
2022-09-23T17:51:25.706Z,14.03
2022-09-23T17:53:52.799Z,13.98
2022-09-23T17:56:25.099Z,14.68
2022-09-23T17:58:53.811Z,14.55
2022-09-23T18:01:24.004Z,14.87
2022-09-23T18:03:59.463Z,14.70
2022-09-23T18:06:28.861Z,14.88
2022-09-23T18:08:56.161Z,15.48
2022-09-23T18:11:30.718Z,15.60
2022-09-23T18:14:05.213Z,16.02
2022-09-23T18:16:36.568Z,15.52
2022-09-23T18:19:04.533Z,16.27
2022-09-23T18:21:34.756Z,16.30
2022-09-23T18:24:21.642Z,15.55
2022-09-23T18:26:49.878Z,16.60
2022-09-23T18:29:23.193Z,16.00
2022-09-23T18:31:51.081Z,15.98
2022-09-23T18:34:18.569Z,15.90
2022-09-23T18:36:45.593Z,15.20
2022-09-23T18:39:12.634Z,15.70
2022-09-23T18:41:41.011Z,15.63
2022-09-23T18:44:08.289Z,15.10
2022-09-23T18:46:38.609Z,15.20
2022-09-23T18:49:24.235Z,15.77
2022-09-23T18:51:56.682Z,15.32
2022-09-23T18:54:26.043Z,15.75
2022-09-23T18:56:54.887Z,16.67
2022-09-23T18:59:25.085Z,16.30
2022-09-23T19:01:57.161Z,16.77
2022-09-23T19:04:25.797Z,16.00
2022-09-23T19:06:54.752Z,16.17
2022-09-23T19:09:24.306Z,16.55
2022-09-23T19:11:54.590Z,17.00
2022-09-23T19:14:21.727Z,16.98
2022-09-23T19:16:51.976Z,17.55
2022-09-23T19:19:18.874Z,17.40
2022-09-23T19:21:45.854Z,17.67
2022-09-23T19:24:15.779Z,17.80
2022-09-23T19:26:45.119Z,17.93
2022-09-23T19:29:19.482Z,17.58
2022-09-23T19:31:46.560Z,17.85
2022-09-23T19:34:15.614Z,17.85
2022-09-23T19:36:44.668Z,18.70
2022-09-23T19:39:26.644Z,18.15
2022-09-23T19:41:56.008Z,18.55
2022-09-23T19:44:25.079Z,17.73
2022-09-23T19:46:56.350Z,19.00
2022-09-23T19:49:25.157Z,18.00
2022-09-23T19:51:55.314Z,18.58
2022-09-23T19:54:25.172Z,18.27
2022-09-23T19:56:52.215Z,18.05
2022-09-23T19:59:19.650Z,18.63
2022-09-23T20:01:48.264Z,18.50
2022-09-23T20:04:16.147Z,18.75
2022-09-23T20:06:44.092Z,18.40
2022-09-23T20:09:11.148Z,19.05
2022-09-23T20:11:42.838Z,19.55
2022-09-23T20:14:10.684Z,19.45
2022-09-23T20:16:37.705Z,19.80
2022-09-23T20:19:05.717Z,20.23
2022-09-23T20:21:33.801Z,19.55
2022-09-23T20:24:01.539Z,20.70
2022-09-23T20:26:47.211Z,20.75
2022-09-23T20:29:14.278Z,20.65
2022-09-23T20:31:41.411Z,21.63
2022-09-23T20:34:10.416Z,22.15
2022-09-23T20:36:39.065Z,21.20
2022-09-23T20:39:06.393Z,22.33
2022-09-23T20:41:37.900Z,22.10
2022-09-23T20:44:08.161Z,21.40
2022-09-23T20:46:35.802Z,22.20
2022-09-23T20:49:03.893Z,22.63
2022-09-23T20:51:33.417Z,21.90
2022-09-23T20:54:01.115Z,22.30
2022-09-23T20:56:29.157Z,21.77
2022-09-23T20:59:00.533Z,22.00
2022-09-23T21:01:27.992Z,21.88
2022-09-23T21:03:55.969Z,21.43
2022-09-23T21:06:26.319Z,20.95
2022-09-23T21:08:54.967Z,20.65
2022-09-23T21:11:22.314Z,20.33
2022-09-23T21:13:51.335Z,20.58
2022-09-23T21:16:22.030Z,20.13
2022-09-23T21:18:50.569Z,19.92
2022-09-23T21:21:19.448Z,20.33
2022-09-23T21:23:47.327Z,20.38
2022-09-23T21:26:25.402Z,21.17
2022-09-23T21:28:55.409Z,21.42
2022-09-23T21:31:26.678Z,22.63
2022-09-23T21:34:01.653Z,22.38
2022-09-23T21:36:30.175Z,23.88
2022-09-23T21:38:58.040Z,23.17
2022-09-23T21:41:25.160Z,22.98
2022-09-23T21:43:52.070Z,22.98
2022-09-23T21:46:20.662Z,24.00
2022-09-23T21:48:52.815Z,24.65
2022-09-23T21:51:23.151Z,23.95
2022-09-23T21:53:50.131Z,25.15
2022-09-23T21:56:20.983Z,24.67
2022-09-23T21:58:48.823Z,25.20
2022-09-23T22:01:20.809Z,25.30
2022-09-23T22:03:56.448Z,25.52
2022-09-23T22:06:28.294Z,26.55
2022-09-23T22:08:59.655Z,25.08
2022-09-23T22:11:51.575Z,26.20
2022-09-23T22:14:20.135Z,26.90
2022-09-23T22:16:47.237Z,27.02
2022-09-23T22:19:15.579Z,26.80
2022-09-23T22:21:44.855Z,28.00
2022-09-23T22:24:12.726Z,28.10
2022-09-23T22:26:42.059Z,27.60
2022-09-23T22:29:29.541Z,28.08
2022-09-23T22:32:14.864Z,28.08
2022-09-23T22:34:52.204Z,28.97
2022-09-23T22:37:24.871Z,29.60
2022-09-23T22:39:51.917Z,28.77
2022-09-23T22:42:21.253Z,29.13
2022-09-23T22:44:49.024Z,29.73
2022-09-23T22:47:17.944Z,29.98
2022-09-23T22:49:46.212Z,29.80
2022-09-23T22:52:13.972Z,29.60
2022-09-23T22:54:41.098Z,29.88
2022-09-23T22:57:09.118Z,29.88
2022-09-23T22:59:37.348Z,30.10
2022-09-23T23:02:05.266Z,28.88
2022-09-23T23:04:33.589Z,29.17
2022-09-23T23:07:00.493Z,28.70
2022-09-23T23:09:27.604Z,27.90
2022-09-23T23:11:54.489Z,27.23
2022-09-23T23:14:21.487Z,26.43
2022-09-23T23:16:48.348Z,24.88
2022-09-23T23:19:17.344Z,25.17
2022-09-23T23:21:45.646Z,24.87
2022-09-23T23:24:20.898Z,24.20
2022-09-23T23:26:48.554Z,23.50
2022-09-23T23:29:17.245Z,23.03
2022-09-23T23:31:44.845Z,22.77
2022-09-23T23:34:20.288Z,22.83
2022-09-23T23:36:55.166Z,21.00
2022-09-23T23:39:23.915Z,21.00
2022-09-23T23:41:57.945Z,20.90
2022-09-23T23:44:26.281Z,20.17
2022-09-23T23:46:53.767Z,20.50
2022-09-23T23:49:21.472Z,20.25
2022-09-23T23:51:48.683Z,19.92
2022-09-23T23:54:15.647Z,19.50
2022-09-23T23:56:42.952Z,19.27
2022-09-23T23:59:09.999Z,20.13
